Terminal Aerodrome Forecast
Issued by NWS Paducah, KY

Home | Current Version | Previous Version | Text Only | Print | Product List | Glossary Off
Versions: 1 2 3 4 5 6 7 8 9 10 11 12 13 14 15 16 17 18 19 20 21

000
FTUS43 KPAH 032300 AAB
TAFEVV
TAF AMD
KEVV 032300Z 0323/0418 34005KT 6SM HZ VCTS SCT030CB
      TEMPO 0323/0401 4SM -TSRA BR OVC030CB
     FM040100 32006KT P6SM SCT035 BKN100
     FM040800 35003KT 4SM BR SCT002 SCT015=

USA.gov is the U.S. government's official web portal to all federal, state and local government web resources and services.